Startpagina
METAR-TAF:

METAR-TAF

Vliegvelden :

Rheine, Duitsland

breedte: 52-18N, lengte: 007-23E, hoogte: 40 m

Actueel weer

Dit bericht is 52 minuten geleden gemaakt, om 02:20 UTC
Wind 7 kt uit het westzuidwesten
Temperatuur 19°C
Vochtigheid 83%
Druk 1012 hPa

METAR: ETHE 240220Z AUTO 25007KT //// // ////// 19/16 Q1012 ///

Tijdstip: 05:12 (03:12 UTC)

Verwachting

Dit bericht is 13 uur en het 54 minuten geleden gemaakt, om 13:18 UTC
Verwachting geldig van 23 om 11 UTC tot 23 om 20 UTC
Wind 8 kt uit het oostzuidoosten
Zicht: 1330 m
Verspreide wolken op 22000 ft

TAF: ETHE 231318Z 2311/2320 12008KT 9999 NSW SCT220 CANCEL 1330

Waarnemingen en weersverwachtingen van meer dan 4000 vliegvelden (METAR en TAF).

De beschikbare stations zijn de gele en rode punten op de kaart.

Ga met uw muis naar het station om de naam te zien.

Klik dan om waarnemingen en weersverwachtingen te zien.

kaart wijzigen: klik op de groene knoppen met een zwart kruis om in te zoomen, op de groene knop met een streepje om uit te zoomen of op de groene pijlen voor aangrenzende kaarten.


METAR-TAF: